Terminal Aerodrome Forecast
Issued by NWS

Home | Current Version | Previous Version | Text Only | Print | Product List | Glossary On
Versions: 1 2 3 4 5 6 7 8 9 10 11 12 13 14 15 16 17 18 19 20
000
FTUS45 KBOU 280540
TAFBJC
TAF
KBJC 280540Z 2806/2906 32012KT P6SM VCSH SCT040 BKN050 OVC100
     FM280900 34007KT 5SM BR SCT012 BKN025 OVC040
     FM281100 35006KT 1SM BR BKN006 OVC015
      TEMPO 2811/2815 1/2SM FG VV004
     FM281600 01007KT P6SM VCFG BKN015 OVC030
     FM281900 02009KT 5SM -SHRA SCT010 OVC015
      TEMPO 2821/2824 03011KT 3SM -SHRA BR OVC008
     FM290000 04013KT 1SM RA BR BKN005 OVC008=

USA.gov is the U.S. government's official web portal to all federal, state and local government web resources and services.